Time;durP1;ratioP1;P1;durP2;ratioP2;P2;SDS_P1;SDS_P2;PMS_P1;PMS_P2;Temp;Humidity;BMP_temperature;BMP_pressure;BME280_temperature;BME280_humidity;BME280_pressure;Samples;Min_cycle;Max_cycle;Signal;HPM_P1;HPM_P2
2022/02/02 00:04:25;;;;;;;25.67;4.83;;;6.00;99.90;;;;;;5052018;28;20216;-93
2022/02/02 00:07:05;;;;;;;25.47;4.37;;;5.90;99.90;;;;;;5054690;28;20197;-92
2022/02/02 00:09:31;;;;;;;22.40;4.03;;;5.90;99.90;;;;;;5054440;28;20182;-94
2022/02/02 00:12:18;;;;;;;27.90;5.43;;;5.90;99.90;;;;;;5054527;28;20185;-92
2022/02/02 00:14:55;;;;;;;28.67;4.97;;;6.00;99.90;;;;;;5054132;28;20316;-91
2022/02/02 00:20:32;;;;;;;24.43;3.80;;;5.90;99.90;;;;;;5014824;28;20186;-94
2022/02/02 00:23:01;;;;;;;22.57;4.37;;;5.90;99.90;;;;;;5054353;28;20613;-92
2022/02/02 00:25:38;;;;;;;32.00;5.43;;;6.00;99.90;;;;;;5055714;28;20178;-93
2022/02/02 00:28:06;;;;;;;29.63;4.60;;;5.90;99.90;;;;;;5054460;28;20688;-93
2022/02/02 00:30:36;;;;;;;22.57;4.53;;;6.00;99.90;;;;;;5054354;28;20166;-93
2022/02/02 00:35:57;;;;;;;22.57;4.43;;;6.20;99.90;;;;;;5055665;28;20164;-94
2022/02/02 00:38:23;;;;;;;21.30;3.90;;;6.20;99.90;;;;;;5053769;28;20304;-93
2022/02/02 00:40:49;;;;;;;23.73;4.40;;;6.10;99.90;;;;;;5053009;28;20182;-93
2022/02/02 00:43:14;;;;;;;22.57;5.07;;;6.10;99.90;;;;;;5054017;28;20173;-94
2022/02/02 00:45:44;;;;;;;19.77;4.43;;;6.10;99.90;;;;;;5053518;28;20181;-93
2022/02/02 00:48:12;;;;;;;21.47;4.37;;;6.00;99.90;;;;;;5054080;28;20613;-92
2022/02/02 00:50:38;;;;;;;30.87;5.30;;;5.80;99.90;;;;;;5054012;28;20296;-92
2022/02/02 00:53:03;;;;;;;23.97;4.77;;;5.70;99.90;;;;;;5053841;28;20237;-92
2022/02/02 00:55:30;;;;;;;30.10;4.27;;;5.80;99.90;;;;;;5053818;28;20209;-93
2022/02/02 00:57:55;;;;;;;25.13;4.13;;;5.70;99.90;;;;;;5053753;28;20624;-93
2022/02/02 01:00:21;;;;;;;28.57;5.13;;;5.80;99.90;;;;;;5053284;28;20181;-93
2022/02/02 01:02:47;;;;;;;30.43;5.37;;;5.80;99.90;;;;;;5053718;28;20256;-93
2022/02/02 01:05:14;;;;;;;25.20;4.83;;;5.80;99.90;;;;;;5053932;28;20213;-92
2022/02/02 01:08:06;;;;;;;24.50;4.70;;;5.90;99.90;;;;;;5053643;28;20268;-93
2022/02/02 01:10:36;;;;;;;28.47;5.00;;;5.90;99.90;;;;;;5054404;28;20604;-93
2022/02/02 01:16:32;;;;;;;32.60;6.20;;;5.90;99.90;;;;;;5054612;28;20178;-92
2022/02/02 01:18:46;;;;;;;28.37;5.40;;;6.00;99.90;;;;;;5055174;28;20174;-93
2022/02/02 01:21:28;;;;;;;23.07;4.73;;;6.00;99.90;;;;;;5070351;28;20170;-92
2022/02/02 01:29:22;;;;;;;22.60;4.90;;;5.80;99.90;;;;;;5054891;28;20212;-92
2022/02/02 01:31:47;;;;;;;25.30;4.83;;;5.80;99.90;;;;;;5069872;28;20186;-93
2022/02/02 01:34:13;;;;;;;21.30;4.13;;;5.70;99.90;;;;;;5053654;28;20245;-92
2022/02/02 01:36:40;;;;;;;23.70;5.47;;;5.80;99.90;;;;;;5053357;28;20200;-93
2022/02/02 01:39:08;;;;;;;22.33;4.40;;;5.80;99.90;;;;;;5054710;28;20589;-92
2022/02/02 01:41:37;;;;;;;18.73;3.63;;;5.80;99.90;;;;;;5053485;28;20556;-92
2022/02/02 01:44:16;;;;;;;25.53;5.00;;;5.80;99.90;;;;;;5053240;28;20212;-92
2022/02/02 01:46:43;;;;;;;22.07;3.63;;;5.70;99.90;;;;;;5069775;28;20580;-93
2022/02/02 01:52:17;;;;;;;22.60;4.00;;;5.60;99.90;;;;;;5056239;28;20196;-93
2022/02/02 01:57:32;;;;;;;16.83;3.13;;;5.60;99.90;;;;;;5058452;28;20176;-92
2022/02/02 01:59:57;;;;;;;19.20;3.67;;;5.60;99.90;;;;;;5058303;28;20178;-92
2022/02/02 02:02:23;;;;;;;16.80;2.90;;;5.60;99.90;;;;;;5056920;28;20178;-92
2022/02/02 02:04:48;;;;;;;17.70;3.33;;;5.60;99.90;;;;;;5073736;28;20605;-94
2022/02/02 02:07:14;;;;;;;21.47;3.73;;;5.50;99.90;;;;;;5073378;28;20178;-93
2022/02/02 02:09:40;;;;;;;20.83;3.63;;;5.60;99.90;;;;;;5073680;28;20178;-94
2022/02/02 02:12:08;;;;;;;26.87;4.17;;;5.50;99.90;;;;;;5058073;28;20162;-92
2022/02/02 02:14:49;;;;;;;20.20;3.77;;;5.50;99.90;;;;;;5073091;28;20210;-92
2022/02/02 02:17:15;;;;;;;18.57;4.33;;;5.50;99.90;;;;;;5056135;28;20178;-93
2022/02/02 02:19:46;;;;;;;21.70;3.93;;;5.40;99.90;;;;;;5056656;28;20476;-91
2022/02/02 02:22:14;;;;;;;19.50;3.37;;;5.40;99.90;;;;;;5056529;28;20177;-91
2022/02/02 02:24:41;;;;;;;14.83;3.07;;;5.50;99.90;;;;;;5056393;28;20229;-92
2022/02/02 02:27:09;;;;;;;17.47;3.20;;;5.50;99.90;;;;;;5056006;28;20264;-92
2022/02/02 02:37:43;;;;;;;18.90;3.10;;;5.40;99.90;;;;;;5001947;28;20195;-93
2022/02/02 02:56:22;;;;;;;16.17;2.80;;;5.50;99.90;;;;;;5017943;28;20558;-93
2022/02/02 02:59:03;;;;;;;19.03;3.30;;;5.50;99.90;;;;;;5016450;28;20675;-94
2022/02/02 03:02:08;;;;;;;20.00;3.50;;;5.50;99.90;;;;;;5016612;28;20182;-93
2022/02/02 03:51:44;;;;;;;23.03;4.27;;;5.20;99.90;;;;;;5016747;28;20613;-93
2022/02/02 03:54:29;;;;;;;22.27;3.80;;;5.10;99.90;;;;;;5015237;28;20207;-92
2022/02/02 04:05:17;;;;;;;28.47;4.43;;;5.30;99.90;;;;;;5016259;28;20237;-94
2022/02/02 04:07:50;;;;;;;20.83;3.70;;;5.40;99.90;;;;;;5015888;28;20190;-94
2022/02/02 04:10:17;;;;;;;27.17;4.30;;;5.40;99.90;;;;;;5016226;28;20163;-93
2022/02/02 04:12:59;;;;;;;27.60;4.13;;;5.40;99.90;;;;;;5015079;28;20183;-92
2022/02/02 04:54:06;;;;;;;17.33;3.80;;;5.50;99.90;;;;;;4996034;28;20214;-95
2022/02/02 05:04:36;;;;;;;19.23;3.47;;;5.30;99.90;;;;;;5005955;28;20640;-95
2022/02/02 05:07:12;;;;;;;22.33;4.53;;;5.30;99.90;;;;;;5014490;28;20245;-95
2022/02/02 05:09:53;;;;;;;21.43;4.50;;;5.40;99.90;;;;;;4994782;28;20553;-95
2022/02/02 05:18:07;;;;;;;26.83;4.77;;;5.40;99.90;;;;;;4995878;28;20186;-95
2022/02/02 05:50:44;;;;;;;20.80;4.13;;;5.10;99.90;;;;;;5026832;28;20240;-94
2022/02/02 05:53:10;;;;;;;19.83;4.33;;;5.10;99.90;;;;;;5037465;28;20225;-95
2022/02/02 05:55:41;;;;;;;21.27;4.00;;;5.10;99.90;;;;;;5037078;28;20187;-96
2022/02/02 05:58:08;;;;;;;20.13;4.27;;;5.10;99.90;;;;;;5030018;28;20175;-95
2022/02/02 06:00:38;;;;;;;20.73;4.77;;;5.10;99.90;;;;;;5016497;28;20222;-95
2022/02/02 06:03:10;;;;;;;21.43;4.63;;;5.10;99.90;;;;;;5011072;28;20194;-95
2022/02/02 06:05:37;;;;;;;24.73;4.93;;;5.20;99.90;;;;;;5004132;28;20207;-95
2022/02/02 06:08:10;;;;;;;25.63;4.13;;;5.10;99.90;;;;;;5020759;28;20202;-96
2022/02/02 06:10:36;;;;;;;22.60;4.23;;;5.20;99.90;;;;;;5025199;28;20178;-95
2022/02/02 06:13:02;;;;;;;20.10;4.00;;;5.30;99.90;;;;;;5027410;28;20242;-93
2022/02/02 06:15:28;;;;;;;26.77;4.87;;;5.20;99.90;;;;;;5031551;28;20531;-94
2022/02/02 06:17:58;;;;;;;23.67;4.90;;;5.20;99.90;;;;;;5036436;28;20186;-93
2022/02/02 06:20:23;;;;;;;27.27;5.33;;;5.20;99.90;;;;;;5037120;28;20220;-93
2022/02/02 06:23:07;;;;;;;28.33;4.90;;;5.30;99.90;;;;;;5037285;28;20234;-93
2022/02/02 06:25:35;;;;;;;23.73;4.57;;;5.30;99.90;;;;;;5036915;28;20221;-93
2022/02/02 06:28:06;;;;;;;39.73;6.60;;;5.30;99.90;;;;;;5034669;28;20178;-91
2022/02/02 06:30:33;;;;;;;24.53;4.20;;;5.20;99.90;;;;;;5024562;28;20515;-91
2022/02/02 06:33:08;;;;;;;35.07;5.40;;;5.20;99.90;;;;;;5016524;28;20230;-94
2022/02/02 06:35:36;;;;;;;23.37;5.00;;;5.30;99.90;;;;;;5035800;28;20319;-94
2022/02/02 06:38:03;;;;;;;20.77;4.90;;;5.20;99.90;;;;;;5011991;28;20679;-95
2022/02/02 06:40:29;;;;;;;28.50;4.40;;;5.30;99.90;;;;;;5016981;28;20265;-95
2022/02/02 06:42:56;;;;;;;29.30;3.83;;;5.20;99.90;;;;;;5019548;28;20194;-95
2022/02/02 06:45:23;;;;;;;27.87;4.73;;;5.20;99.90;;;;;;5036801;28;20167;-96
2022/02/02 06:47:49;;;;;;;33.27;5.00;;;5.20;99.90;;;;;;5037126;28;20174;-96
2022/02/02 06:50:55;;;;;;;26.40;4.17;;;5.20;99.90;;;;;;5036361;28;20679;-95
2022/02/02 06:53:28;;;;;;;30.03;4.70;;;5.20;99.90;;;;;;5035213;28;20219;-95
2022/02/02 07:01:56;;;;;;;27.27;4.53;;;5.30;99.90;;;;;;5037103;28;20171;-95
2022/02/02 07:04:43;;;;;;;24.47;5.17;;;5.30;99.90;;;;;;5025872;28;20325;-95
2022/02/02 07:07:25;;;;;;;26.20;4.30;;;5.20;99.90;;;;;;5036340;28;20178;-94
2022/02/02 07:15:25;;;;;;;24.03;5.17;;;5.00;99.90;;;;;;5037115;28;20170;-93
2022/02/02 07:18:15;;;;;;;26.63;4.47;;;5.00;99.90;;;;;;5036267;28;20170;-93
2022/02/02 07:20:54;;;;;;;28.03;4.73;;;5.00;99.90;;;;;;5036576;28;20613;-94
2022/02/02 07:28:22;;;;;;;25.93;4.57;;;5.10;99.90;;;;;;5036930;28;20179;-93
2022/02/02 07:33:42;;;;;;;26.30;4.23;;;5.20;99.90;;;;;;5029993;28;20245;-93
2022/02/02 07:36:16;;;;;;;21.97;4.43;;;5.20;99.90;;;;;;5015543;28;20171;-93
2022/02/02 07:38:56;;;;;;;31.70;5.37;;;5.20;99.90;;;;;;5015873;28;20179;-94
2022/02/02 07:41:31;;;;;;;27.23;4.97;;;5.30;99.90;;;;;;5015805;28;20175;-95
2022/02/02 07:44:05;;;;;;;26.53;4.23;;;5.30;99.90;;;;;;5015595;28;20182;-94
2022/02/02 07:46:32;;;;;;;28.17;4.50;;;5.40;99.90;;;;;;5015346;28;20189;-94
2022/02/02 07:48:59;;;;;;;28.60;4.10;;;5.40;99.90;;;;;;5015457;28;20642;-93
2022/02/02 07:51:27;;;;;;;29.27;4.43;;;5.40;99.90;;;;;;5015559;28;20594;-94
2022/02/02 07:53:56;;;;;;;23.93;4.13;;;5.40;99.90;;;;;;5015729;28;20261;-93
2022/02/02 07:56:27;;;;;;;23.67;4.13;;;5.50;99.90;;;;;;5015500;28;20267;-92
2022/02/02 07:59:12;;;;;;;28.77;4.80;;;5.50;99.90;;;;;;5015515;28;20266;-93
2022/02/02 08:01:38;;;;;;;23.40;5.17;;;5.60;99.90;;;;;;5015334;28;20183;-92
2022/02/02 08:04:04;;;;;;;23.63;5.43;;;5.60;99.90;;;;;;5015089;28;20692;-93
2022/02/02 08:06:31;;;;;;;24.97;4.80;;;5.50;99.90;;;;;;5014972;28;20178;-96
2022/02/02 08:08:58;;;;;;;23.23;4.30;;;5.60;99.90;;;;;;5015443;28;20175;-94
2022/02/02 08:11:33;;;;;;;19.37;3.93;;;5.50;99.90;;;;;;5015144;28;20198;-94
2022/02/02 08:14:01;;;;;;;21.17;3.87;;;5.60;99.90;;;;;;5014934;28;20620;-94
2022/02/02 08:16:29;;;;;;;25.97;4.47;;;5.50;99.90;;;;;;5015375;28;20491;-95
2022/02/02 08:18:55;;;;;;;22.60;3.87;;;5.50;99.90;;;;;;5015124;28;20229;-95
2022/02/02 08:21:21;;;;;;;22.97;4.43;;;5.60;99.90;;;;;;5014948;28;20183;-96
2022/02/02 08:23:48;;;;;;;19.90;3.27;;;5.60;99.90;;;;;;5014852;28;20187;-96
2022/02/02 08:26:15;;;;;;;21.00;3.50;;;5.60;99.90;;;;;;5014960;28;20606;-95
2022/02/02 08:28:43;;;;;;;18.73;3.70;;;5.60;99.90;;;;;;5014830;28;20191;-96
2022/02/02 08:31:08;;;;;;;20.97;3.30;;;5.70;99.90;;;;;;5014907;28;20171;-96
2022/02/02 08:33:38;;;;;;;17.03;3.40;;;5.60;99.90;;;;;;5014518;28;20270;-95
2022/02/02 08:36:09;;;;;;;20.13;3.13;;;5.60;99.90;;;;;;5014693;28;20182;-95
2022/02/02 08:41:27;;;;;;;16.10;3.27;;;5.50;99.90;;;;;;5015821;28;20167;-95
2022/02/02 08:44:05;;;;;;;15.93;2.97;;;5.50;99.90;;;;;;5010073;28;20195;-96
2022/02/02 08:46:38;;;;;;;16.83;3.50;;;5.50;99.90;;;;;;4994974;28;20210;-95
2022/02/02 08:49:08;;;;;;;21.13;3.00;;;5.40;99.90;;;;;;5010661;28;20183;-95
2022/02/02 08:51:39;;;;;;;18.20;2.93;;;5.50;99.90;;;;;;5014737;28;20214;-95
2022/02/02 08:59:25;;;;;;;14.60;2.53;;;5.50;99.90;;;;;;5015866;28;20254;-95
2022/02/02 09:01:53;;;;;;;12.43;2.70;;;5.60;99.90;;;;;;5013979;28;20176;-95
2022/02/02 09:07:05;;;;;;;15.23;2.93;;;5.80;99.90;;;;;;5015622;28;20186;-95
2022/02/02 09:10:17;;;;;;;18.20;3.10;;;5.70;99.90;;;;;;5014855;28;20175;-96
2022/02/02 09:25:55;;;;;;;12.97;2.53;;;5.90;99.90;;;;;;5017114;28;20702;-96
2022/02/02 09:36:20;;;;;;;13.03;2.67;;;6.10;99.90;;;;;;5014886;28;20179;-94
2022/02/02 09:38:46;;;;;;;10.43;1.90;;;6.20;99.90;;;;;;4998226;28;20211;-93
2022/02/02 09:44:00;;;;;;;13.07;2.77;;;6.20;99.90;;;;;;5035281;28;20208;-94
2022/02/02 09:46:34;;;;;;;11.80;2.03;;;6.20;99.90;;;;;;5022952;28;20195;-94
2022/02/02 09:49:05;;;;;;;17.77;2.53;;;6.20;99.90;;;;;;5014278;28;20190;-96
2022/02/02 09:51:37;;;;;;;15.20;2.17;;;6.10;99.90;;;;;;5013767;28;20208;-95
2022/02/02 09:54:11;;;;;;;10.47;2.10;;;6.10;99.90;;;;;;4994268;28;20639;-95
2022/02/02 09:59:28;;;;;;;12.27;2.10;;;6.20;99.90;;;;;;4995845;28;20613;-95
2022/02/02 10:02:36;;;;;;;14.50;2.23;;;6.20;99.90;;;;;;5010689;28;20172;-95
2022/02/02 10:15:33;;;;;;;11.60;2.53;;;6.30;99.90;;;;;;5002418;28;20187;-96
2022/02/02 10:18:07;;;;;;;12.37;2.73;;;6.40;99.90;;;;;;5017865;28;20171;-95
2022/02/02 10:20:34;;;;;;;13.03;2.30;;;6.40;99.90;;;;;;5017511;28;20270;-96
2022/02/02 10:23:01;;;;;;;12.27;2.50;;;6.50;99.90;;;;;;5017966;28;20198;-95
2022/02/02 10:25:33;;;;;;;14.63;2.40;;;6.50;99.90;;;;;;5017339;28;20522;-95
2022/02/02 10:28:12;;;;;;;11.37;2.30;;;6.50;99.90;;;;;;5017707;28;20179;-96
2022/02/02 10:30:40;;;;;;;13.27;2.23;;;6.50;99.90;;;;;;5018496;28;20182;-96
2022/02/02 10:33:11;;;;;;;13.43;2.63;;;6.30;99.90;;;;;;5017690;28;20231;-95
2022/02/02 10:35:40;;;;;;;11.20;2.47;;;6.20;99.90;;;;;;5017773;28;20183;-96
2022/02/02 10:38:13;;;;;;;16.33;2.17;;;6.10;99.90;;;;;;5017527;28;20181;-96
2022/02/02 10:40:56;;;;;;;11.33;2.60;;;6.20;99.90;;;;;;5017302;28;20631;-95
2022/02/02 10:43:35;;;;;;;14.70;2.73;;;6.30;99.90;;;;;;5016914;28;20175;-95
2022/02/02 10:46:08;;;;;;;12.00;2.03;;;6.50;99.90;;;;;;5016486;28;20195;-95
2022/02/02 10:48:41;;;;;;;13.57;2.13;;;6.70;99.90;;;;;;5017127;28;20186;-96
2022/02/02 10:51:14;;;;;;;8.70;2.27;;;6.70;99.90;;;;;;5017236;28;20210;-96
2022/02/02 10:54:04;;;;;;;12.63;2.50;;;6.60;99.90;;;;;;5016865;28;20215;-96
2022/02/02 11:07:26;;;;;;;9.13;2.10;;;5.50;99.90;;;;;;5018193;28;20222;-93
2022/02/02 11:09:53;;;;;;;12.37;2.40;;;5.70;99.90;;;;;;5016502;28;20237;-95
2022/02/02 11:12:28;;;;;;;11.43;2.77;;;5.80;99.90;;;;;;5016830;28;20180;-93
2022/02/02 11:15:06;;;;;;;12.40;2.60;;;5.80;99.90;;;;;;5016023;28;20214;-93
2022/02/02 11:17:48;;;;;;;13.13;2.70;;;6.00;99.90;;;;;;5015992;28;20522;-96
2022/02/02 11:20:16;;;;;;;12.57;2.60;;;6.00;99.90;;;;;;5016351;28;20179;-96
2022/02/02 11:22:50;;;;;;;8.07;2.00;;;6.20;99.90;;;;;;5016301;28;20209;-96
2022/02/02 11:25:22;;;;;;;13.50;2.80;;;6.30;99.90;;;;;;5015984;28;20179;-94
2022/02/02 11:27:53;;;;;;;10.70;2.27;;;6.50;99.90;;;;;;5016472;28;20179;-95
2022/02/02 11:30:25;;;;;;;9.70;2.33;;;6.50;99.90;;;;;;5016171;28;20172;-95
2022/02/02 11:32:58;;;;;;;11.77;2.40;;;6.60;99.90;;;;;;5015737;28;20186;-95
2022/02/02 11:36:10;;;;;;;15.93;2.57;;;6.70;99.90;;;;;;5017238;28;20179;-96
2022/02/02 11:38:27;;;;;;;10.63;2.30;;;6.50;99.90;;;;;;5014832;28;20190;-95
2022/02/02 11:43:50;;;;;;;9.80;1.90;;;6.50;99.90;;;;;;5017685;28;20203;-96
2022/02/02 11:47:12;;;;;;;12.10;2.40;;;6.40;99.90;;;;;;5015437;28;20183;-96
2022/02/02 11:49:57;;;;;;;18.37;2.90;;;6.60;99.90;;;;;;5015974;28;20175;-96
2022/02/02 11:52:46;;;;;;;11.70;3.10;;;6.60;99.90;;;;;;5015712;28;20241;-95
2022/02/02 11:55:12;;;;;;;11.10;2.37;;;6.70;99.90;;;;;;5015984;28;20529;-96
2022/02/02 11:58:18;;;;;;;11.53;2.73;;;6.80;99.90;;;;;;5015352;28;20175;-94
2022/02/02 12:58:18;;;;;;;9.23;1.70;;;6.80;99.90;;;;;;5015551;28;20237;-94
2022/02/02 13:03:12;;;;;;;12.87;1.90;;;6.90;99.90;;;;;;5015216;28;20171;-94
2022/02/02 13:05:40;;;;;;;9.63;1.80;;;6.70;99.90;;;;;;5014297;28;20278;-93
2022/02/02 13:08:07;;;;;;;11.40;2.23;;;6.60;99.90;;;;;;5014188;28;20203;-95
2022/02/02 13:10:35;;;;;;;7.23;1.60;;;6.60;99.90;;;;;;5014910;28;20183;-94
2022/02/02 13:13:21;;;;;;;6.67;1.37;;;6.40;99.90;;;;;;5014549;28;20183;-94
2022/02/02 13:15:57;;;;;;;6.50;1.30;;;6.20;99.90;;;;;;5014247;28;20191;-94
2022/02/02 13:18:33;;;;;;;5.77;1.33;;;5.90;99.90;;;;;;5015005;28;20171;-94
2022/02/02 13:21:18;;;;;;;10.03;1.53;;;5.90;99.90;;;;;;5014367;28;20175;-94
2022/02/02 13:26:28;;;;;;;6.33;1.70;;;5.80;99.90;;;;;;5026236;28;20265;-95
2022/02/02 13:29:16;;;;;;;8.97;1.57;;;6.10;99.90;;;;;;5008838;28;20191;-94
2022/02/02 13:34:53;;;;;;;8.93;1.70;;;6.20;99.90;;;;;;5014927;28;20230;-94
2022/02/02 13:45:45;;;;;;;9.83;1.53;;;6.30;99.90;;;;;;5030732;28;20175;-96
2022/02/02 13:51:27;;;;;;;10.57;1.83;;;6.00;99.90;;;;;;5018986;28;20164;-93
2022/02/02 13:54:12;;;;;;;8.60;1.60;;;5.90;99.90;;;;;;5017093;28;20310;-94
2022/02/02 13:59:38;;;;;;;7.53;1.67;;;5.60;99.90;;;;;;5020417;28;20174;-94
2022/02/02 14:03:44;;;;;;;6.63;1.33;;;5.60;99.90;;;;;;5036629;28;20222;-93
2022/02/02 14:05:16;;;;;;;7.77;1.30;;;5.50;99.90;;;;;;5038416;28;20166;-95
2022/02/02 14:07:58;;;;;;;9.13;1.60;;;5.60;99.90;;;;;;5037376;28;20202;-94
2022/02/02 14:11:01;;;;;;;9.30;1.67;;;5.60;99.90;;;;;;5037669;28;20170;-95
2022/02/02 14:32:20;;;;;;;14.30;2.53;;;5.60;99.90;;;;;;5019043;28;20179;-94
2022/02/02 14:34:45;;;;;;;10.37;1.50;;;5.70;99.90;;;;;;5017282;28;20243;-96
2022/02/02 14:37:16;;;;;;;9.13;1.97;;;5.80;99.90;;;;;;5033921;28;20254;-96
2022/02/02 14:39:55;;;;;;;11.63;1.70;;;5.80;99.90;;;;;;5037268;28;20174;-96
2022/02/02 14:42:24;;;;;;;11.17;1.80;;;5.70;99.90;;;;;;4998371;28;20564;-96
2022/02/02 14:44:52;;;;;;;10.00;1.90;;;5.50;99.90;;;;;;5021231;28;20182;-95
2022/02/02 14:47:25;;;;;;;16.83;1.90;;;5.50;99.90;;;;;;5017026;28;20191;-96
2022/02/02 14:50:09;;;;;;;7.97;1.90;;;5.50;99.90;;;;;;5017697;28;20179;-96
2022/02/02 14:52:50;;;;;;;12.23;1.60;;;5.50;99.90;;;;;;5017957;28;20176;-95
2022/02/02 15:09:18;;;;;;;7.00;1.90;;;5.50;99.90;;;;;;5037688;28;20234;-95
2022/02/02 15:16:50;;;;;;;7.63;1.80;;;5.50;99.90;;;;;;5035930;28;20296;-96
2022/02/02 15:28:43;;;;;;;10.77;2.23;;;5.20;99.90;;;;;;5006543;28;20229;-95
2022/02/02 15:30:58;;;;;;;7.63;2.03;;;5.10;99.90;;;;;;5011381;28;20516;-94
2022/02/02 15:33:27;;;;;;;7.87;1.67;;;5.20;99.90;;;;;;5015481;28;20572;-93
2022/02/02 15:38:32;;;;;;;10.70;1.67;;;5.10;99.90;;;;;;5017148;28;20163;-95
2022/02/02 15:41:03;;;;;;;12.73;2.50;;;5.10;99.90;;;;;;5015532;28;20689;-94
2022/02/02 15:43:41;;;;;;;5.57;1.83;;;4.90;99.90;;;;;;5015317;28;20167;-94
2022/02/02 16:02:31;;;;;;;9.30;2.03;;;4.70;99.90;;;;;;5016625;28;20253;-94
2022/02/02 16:04:58;;;;;;;14.50;2.13;;;4.80;99.90;;;;;;5015119;28;20514;-94
2022/02/02 16:07:28;;;;;;;10.27;2.47;;;4.80;99.90;;;;;;5015201;28;20183;-94
2022/02/02 16:09:58;;;;;;;13.60;2.23;;;4.80;99.90;;;;;;5014260;28;20183;-92
2022/02/02 16:12:43;;;;;;;13.00;2.43;;;4.90;99.90;;;;;;5015491;28;20483;-94
2022/02/02 16:17:49;;;;;;;12.60;2.30;;;4.90;99.90;;;;;;5016061;28;20175;-93
2022/02/02 16:36:10;;;;;;;9.17;2.00;;;4.80;99.90;;;;;;5016068;28;20180;-95
2022/02/02 16:38:39;;;;;;;10.80;2.17;;;4.80;99.90;;;;;;5015127;28;20175;-93
2022/02/02 16:42:55;;;;;;;14.43;2.43;;;4.80;99.90;;;;;;5015871;28;20179;-94
2022/02/02 16:43:50;;;;;;;11.80;2.17;;;4.80;99.90;;;;;;5015950;28;20533;-94
2022/02/02 16:46:16;;;;;;;11.27;2.63;;;4.80;99.90;;;;;;5014255;28;20221;-95
2022/02/02 16:48:42;;;;;;;12.17;1.93;;;4.80;99.90;;;;;;5014696;28;20205;-96
2022/02/02 16:51:08;;;;;;;8.90;1.90;;;4.70;99.90;;;;;;5014626;28;20182;-95
2022/02/02 16:53:45;;;;;;;15.43;2.53;;;4.70;99.90;;;;;;5014485;28;20211;-94
2022/02/02 17:31:24;;;;;;;7.70;1.93;;;4.20;99.90;;;;;;5018619;28;20159;-92
2022/02/02 17:33:57;;;;;;;10.30;1.93;;;4.10;99.90;;;;;;5017740;28;20230;-92
2022/02/02 17:36:31;;;;;;;9.43;3.10;;;4.10;99.90;;;;;;5017761;28;20686;-93
2022/02/02 17:39:00;;;;;;;11.27;2.40;;;4.10;99.90;;;;;;5018013;28;20571;-94
2022/02/02 18:19:06;;;;;;;19.13;3.77;;;3.70;99.90;;;;;;5009673;28;20700;-94
2022/02/02 18:21:32;;;;;;;17.93;3.80;;;3.80;99.90;;;;;;5011503;28;20188;-95
2022/02/02 18:27:36;;;;;;;15.33;4.03;;;3.80;99.90;;;;;;4993766;28;20573;-92
2022/02/02 18:29:59;;;;;;;22.60;3.70;;;3.80;99.90;;;;;;4997181;28;20224;-92
2022/02/02 18:32:54;;;;;;;17.43;4.17;;;3.70;99.90;;;;;;5012782;28;20226;-92
2022/02/02 18:35:21;;;;;;;20.30;3.93;;;3.60;99.90;;;;;;5013504;28;20227;-92
2022/02/02 18:41:46;;;;;;;8.83;2.73;;;3.60;99.90;;;;;;4998425;28;20622;-93
2022/02/02 18:54:05;;;;;;;14.53;3.50;;;3.40;99.90;;;;;;5021986;28;20230;-92
2022/02/02 19:02:00;;;;;;;13.77;3.07;;;3.30;99.90;;;;;;5025681;28;20169;-92
2022/02/02 19:37:41;;;;;;;12.33;2.27;;;3.30;99.90;;;;;;5025102;28;20245;-93
2022/02/02 19:40:24;;;;;;;12.77;2.73;;;3.30;99.90;;;;;;5016239;28;20565;-93
2022/02/02 20:04:32;;;;;;;24.47;4.27;;;2.90;99.90;;;;;;5017163;28;20226;-94
2022/02/02 20:12:06;;;;;;;15.73;2.80;;;2.90;99.90;;;;;;5017215;28;20210;-93
2022/02/02 20:14:32;;;;;;;13.50;3.20;;;2.90;99.90;;;;;;5015900;28;20235;-94
2022/02/02 20:16:58;;;;;;;17.63;3.03;;;2.90;99.90;;;;;;5015738;28;20178;-94
2022/02/02 20:19:23;;;;;;;18.53;2.57;;;2.90;99.90;;;;;;5014980;28;20183;-93
2022/02/02 20:21:53;;;;;;;17.10;2.87;;;2.90;99.90;;;;;;5015557;28;20270;-93
2022/02/02 20:24:23;;;;;;;17.23;2.93;;;2.90;99.90;;;;;;5015604;28;20190;-94
2022/02/02 20:26:49;;;;;;;12.03;2.27;;;2.80;99.90;;;;;;5015324;28;20214;-95
2022/02/02 20:29:16;;;;;;;9.30;2.00;;;2.80;99.90;;;;;;5015089;28;20181;-95
2022/02/02 20:31:44;;;;;;;13.47;3.17;;;2.80;99.90;;;;;;5013149;28;21487;-93
2022/02/02 20:34:12;;;;;;;12.27;2.80;;;2.80;99.90;;;;;;5016303;28;20237;-94
2022/02/02 20:36:39;;;;;;;13.20;2.50;;;2.80;99.90;;;;;;5014889;28;20682;-95
2022/02/02 20:39:18;;;;;;;23.33;2.73;;;2.90;99.90;;;;;;5015121;28;20171;-95
2022/02/02 20:41:43;;;;;;;14.73;2.87;;;2.90;99.90;;;;;;5015016;28;20198;-95
2022/02/02 20:44:19;;;;;;;16.20;2.73;;;2.90;99.90;;;;;;5015402;28;20179;-94
2022/02/02 21:05:39;;;;;;;12.40;2.50;;;2.80;99.90;;;;;;5002108;28;20213;-93
2022/02/02 21:08:36;;;;;;;15.63;2.50;;;2.90;99.90;;;;;;5012889;28;20186;-93
2022/02/02 21:11:13;;;;;;;12.47;2.90;;;2.90;99.90;;;;;;5012477;28;20342;-94
2022/02/02 21:13:42;;;;;;;13.77;2.50;;;2.80;99.90;;;;;;5013149;28;20319;-94
2022/02/02 21:16:09;;;;;;;12.03;2.97;;;2.80;99.90;;;;;;5012726;28;20183;-93
2022/02/02 21:18:38;;;;;;;21.53;3.30;;;2.80;99.90;;;;;;5012756;28;20187;-93
2022/02/02 21:21:15;;;;;;;15.97;2.90;;;2.80;99.90;;;;;;5011711;28;20278;-93
2022/02/02 21:24:18;;;;;;;18.20;2.83;;;2.70;99.90;;;;;;5013299;28;20179;-94
2022/02/02 21:27:15;;;;;;;13.67;3.37;;;2.70;99.90;;;;;;5013772;28;20282;-94
2022/02/02 21:29:36;;;;;;;18.00;3.20;;;2.70;99.90;;;;;;5013588;28;20183;-93
2022/02/02 21:32:02;;;;;;;15.17;3.07;;;2.60;99.90;;;;;;5012708;28;20194;-94
2022/02/02 21:34:28;;;;;;;14.10;3.93;;;2.60;99.90;;;;;;5012908;28;20246;-94
2022/02/02 21:36:55;;;;;;;12.77;3.23;;;2.60;99.90;;;;;;5013390;28;20179;-94
2022/02/02 21:39:25;;;;;;;20.43;3.60;;;2.60;99.90;;;;;;5012660;28;20274;-93
2022/02/02 21:41:53;;;;;;;17.77;3.60;;;2.60;99.90;;;;;;5012689;28;20314;-94
2022/02/02 21:44:20;;;;;;;23.10;3.87;;;2.60;99.90;;;;;;5013283;28;20276;-94
2022/02/02 21:46:47;;;;;;;19.87;3.40;;;2.60;99.90;;;;;;5012944;28;20631;-94
2022/02/02 21:49:19;;;;;;;14.63;3.53;;;2.60;99.90;;;;;;5015962;28;20210;-94
2022/02/02 21:52:02;;;;;;;19.93;4.10;;;2.70;99.90;;;;;;5014741;28;20183;-93
2022/02/02 21:54:29;;;;;;;17.17;3.70;;;2.70;99.90;;;;;;5012391;28;20218;-93
2022/02/02 21:56:56;;;;;;;14.47;3.90;;;2.70;99.90;;;;;;5012479;28;20188;-93
2022/02/02 21:59:22;;;;;;;19.53;3.93;;;2.70;99.90;;;;;;5012369;28;20622;-94
2022/02/02 22:01:49;;;;;;;14.10;3.67;;;2.70;99.90;;;;;;5012445;28;20241;-94
2022/02/02 22:04:14;;;;;;;12.50;3.07;;;2.70;99.90;;;;;;5011887;28;20229;-93
2022/02/02 22:06:41;;;;;;;17.37;3.47;;;2.60;99.90;;;;;;5012248;28;20191;-95
2022/02/02 22:09:07;;;;;;;19.57;4.10;;;2.60;99.90;;;;;;5015459;28;20186;-94
2022/02/02 22:11:36;;;;;;;16.43;3.50;;;2.60;99.90;;;;;;5016116;28;20520;-95
2022/02/02 22:14:09;;;;;;;15.20;3.87;;;2.60;99.90;;;;;;5016099;28;20611;-95
2022/02/02 22:16:37;;;;;;;16.23;4.33;;;2.50;99.90;;;;;;5015742;28;20190;-95
2022/02/02 22:19:03;;;;;;;19.77;3.80;;;2.40;99.90;;;;;;5015870;28;20245;-94
2022/02/02 22:21:30;;;;;;;19.73;3.80;;;2.50;99.90;;;;;;5016093;28;20210;-95
2022/02/02 22:23:56;;;;;;;19.10;4.23;;;2.40;99.90;;;;;;5015634;28;20183;-96
2022/02/02 22:26:22;;;;;;;22.60;3.83;;;2.40;99.90;;;;;;5017055;28;20175;-95
2022/02/02 22:28:48;;;;;;;12.33;3.43;;;2.40;99.90;;;;;;5017245;28;20179;-94
2022/02/02 22:31:14;;;;;;;20.50;4.27;;;2.40;99.90;;;;;;5017301;28;20225;-94
2022/02/02 22:33:40;;;;;;;28.40;4.53;;;2.30;99.90;;;;;;5017122;28;20293;-96
2022/02/02 22:36:07;;;;;;;15.93;3.80;;;2.30;99.90;;;;;;5017248;28;20175;-95
2022/02/02 22:38:32;;;;;;;19.87;4.10;;;2.30;99.90;;;;;;5016599;28;20278;-95
2022/02/02 22:40:58;;;;;;;24.43;4.40;;;2.30;99.90;;;;;;5017374;28;20262;-95
2022/02/02 22:43:29;;;;;;;19.53;4.83;;;2.30;99.90;;;;;;5016923;28;20183;-94
2022/02/02 22:45:55;;;;;;;21.53;4.87;;;2.30;99.90;;;;;;5018162;28;20160;-95
2022/02/02 22:48:23;;;;;;;12.47;3.47;;;2.30;99.90;;;;;;5016762;28;20245;-95
2022/02/02 22:50:49;;;;;;;20.97;4.20;;;2.40;99.90;;;;;;5016414;28;20175;-94
2022/02/02 22:53:20;;;;;;;23.73;3.40;;;2.30;99.90;;;;;;5012423;28;20219;-95
2022/02/02 22:55:45;;;;;;;19.67;3.47;;;2.30;99.90;;;;;;4997388;28;20192;-95
2022/02/02 22:58:11;;;;;;;19.27;3.27;;;2.40;99.90;;;;;;4996945;28;20184;-96
2022/02/02 23:00:39;;;;;;;16.20;3.40;;;2.30;99.90;;;;;;4996937;28;20524;-95
2022/02/02 23:03:11;;;;;;;20.53;3.57;;;2.20;99.90;;;;;;4996719;28;20180;-94
2022/02/02 23:05:42;;;;;;;19.30;4.07;;;2.20;99.90;;;;;;4996769;28;20183;-95
2022/02/02 23:08:11;;;;;;;17.40;4.03;;;2.10;99.90;;;;;;4996510;28;20198;-95
2022/02/02 23:10:38;;;;;;;14.83;3.57;;;2.10;99.90;;;;;;4996674;28;20176;-96
2022/02/02 23:13:04;;;;;;;22.47;3.70;;;2.10;99.90;;;;;;4996672;28;20234;-93
2022/02/02 23:16:22;;;;;;;20.23;4.33;;;2.20;99.90;;;;;;4996406;28;20265;-95
2022/02/02 23:18:19;;;;;;;18.43;3.53;;;2.10;99.90;;;;;;4990070;28;20641;-94